sensor_id;sensor_type;location;lat;lon;timestamp;temperature;humidity
46037;DHT22;31769;49.304;8.428;2023-04-03T00:00:37;5.40;99.90
46037;DHT22;31769;49.304;8.428;2023-04-03T00:03:38;5.30;99.90
46037;DHT22;31769;49.304;8.428;2023-04-03T00:06:39;5.40;99.90
46037;DHT22;31769;49.304;8.428;2023-04-03T00:09:40;5.30;99.90
46037;DHT22;31769;49.304;8.428;2023-04-03T00:12:40;5.30;99.90
46037;DHT22;31769;49.304;8.428;2023-04-03T00:15:41;5.20;99.90
46037;DHT22;31769;49.304;8.428;2023-04-03T00:18:42;5.20;99.90
46037;DHT22;31769;49.304;8.428;2023-04-03T00:21:44;5.20;99.90
46037;DHT22;31769;49.304;8.428;2023-04-03T00:24:45;5.20;99.90
46037;DHT22;31769;49.304;8.428;2023-04-03T00:27:45;5.20;99.90
46037;DHT22;31769;49.304;8.428;2023-04-03T00:30:48;5.20;99.90
46037;DHT22;31769;49.304;8.428;2023-04-03T00:33:49;5.20;99.90
46037;DHT22;31769;49.304;8.428;2023-04-03T00:36:50;5.20;99.90
46037;DHT22;31769;49.304;8.428;2023-04-03T00:39:51;5.20;99.90
46037;DHT22;31769;49.304;8.428;2023-04-03T00:42:57;5.10;99.90
46037;DHT22;31769;49.304;8.428;2023-04-03T00:45:58;5.20;99.90
46037;DHT22;31769;49.304;8.428;2023-04-03T00:48:59;5.10;99.90
46037;DHT22;31769;49.304;8.428;2023-04-03T00:52:00;5.00;99.90
46037;DHT22;31769;49.304;8.428;2023-04-03T00:55:04;5.00;99.90
46037;DHT22;31769;49.304;8.428;2023-04-03T00:58:06;5.00;99.90
46037;DHT22;31769;49.304;8.428;2023-04-03T01:01:12;5.00;99.90
46037;DHT22;31769;49.304;8.428;2023-04-03T01:04:30;5.00;99.90
46037;DHT22;31769;49.304;8.428;2023-04-03T01:07:32;4.90;99.90
46037;DHT22;31769;49.304;8.428;2023-04-03T01:10:34;4.90;99.90
46037;DHT22;31769;49.304;8.428;2023-04-03T01:13:35;4.90;99.90
46037;DHT22;31769;49.304;8.428;2023-04-03T01:16:37;4.90;99.90
46037;DHT22;31769;49.304;8.428;2023-04-03T01:19:40;4.90;99.90
46037;DHT22;31769;49.304;8.428;2023-04-03T01:25:57;4.90;99.90
46037;DHT22;31769;49.304;8.428;2023-04-03T01:28:59;4.90;99.90
46037;DHT22;31769;49.304;8.428;2023-04-03T01:32:02;4.90;99.90
46037;DHT22;31769;49.304;8.428;2023-04-03T01:35:06;4.90;99.90
46037;DHT22;31769;49.304;8.428;2023-04-03T01:38:07;4.90;99.90
46037;DHT22;31769;49.304;8.428;2023-04-03T01:41:09;4.80;99.90
46037;DHT22;31769;49.304;8.428;2023-04-03T01:44:11;4.80;99.90
46037;DHT22;31769;49.304;8.428;2023-04-03T01:47:12;4.70;99.90
46037;DHT22;31769;49.304;8.428;2023-04-03T01:50:14;4.70;99.90
46037;DHT22;31769;49.304;8.428;2023-04-03T01:53:15;4.70;99.90
46037;DHT22;31769;49.304;8.428;2023-04-03T01:56:16;4.70;99.90
46037;DHT22;31769;49.304;8.428;2023-04-03T01:59:16;4.70;99.90
46037;DHT22;31769;49.304;8.428;2023-04-03T02:02:18;4.60;99.90
46037;DHT22;31769;49.304;8.428;2023-04-03T02:05:20;4.60;99.90
46037;DHT22;31769;49.304;8.428;2023-04-03T02:08:21;4.60;99.90
46037;DHT22;31769;49.304;8.428;2023-04-03T02:11:22;4.60;99.90
46037;DHT22;31769;49.304;8.428;2023-04-03T02:14:23;4.50;99.90
46037;DHT22;31769;49.304;8.428;2023-04-03T02:17:24;4.50;99.90
46037;DHT22;31769;49.304;8.428;2023-04-03T02:20:25;4.50;99.90
46037;DHT22;31769;49.304;8.428;2023-04-03T02:23:26;4.50;99.90
46037;DHT22;31769;49.304;8.428;2023-04-03T02:26:27;4.50;99.90
46037;DHT22;31769;49.304;8.428;2023-04-03T02:29:28;4.50;99.90
46037;DHT22;31769;49.304;8.428;2023-04-03T02:32:28;4.50;99.90
46037;DHT22;31769;49.304;8.428;2023-04-03T02:35:30;4.60;99.90
46037;DHT22;31769;49.304;8.428;2023-04-03T02:38:33;4.60;99.90
46037;DHT22;31769;49.304;8.428;2023-04-03T02:41:36;4.80;99.90
46037;DHT22;31769;49.304;8.428;2023-04-03T02:44:41;4.60;99.90
46037;DHT22;31769;49.304;8.428;2023-04-03T02:47:43;4.60;99.90
46037;DHT22;31769;49.304;8.428;2023-04-03T02:50:44;4.60;99.90
46037;DHT22;31769;49.304;8.428;2023-04-03T02:53:45;4.60;99.90
46037;DHT22;31769;49.304;8.428;2023-04-03T02:56:51;5.20;99.90
46037;DHT22;31769;49.304;8.428;2023-04-03T02:59:51;4.70;99.90
46037;DHT22;31769;49.304;8.428;2023-04-03T03:02:52;4.90;99.90
46037;DHT22;31769;49.304;8.428;2023-04-03T03:06:11;4.70;99.90
46037;DHT22;31769;49.304;8.428;2023-04-03T03:09:14;4.60;99.90
46037;DHT22;31769;49.304;8.428;2023-04-03T03:12:16;4.70;99.90
46037;DHT22;31769;49.304;8.428;2023-04-03T03:15:21;4.80;99.90
46037;DHT22;31769;49.304;8.428;2023-04-03T03:18:23;4.70;99.90
46037;DHT22;31769;49.304;8.428;2023-04-03T03:21:23;4.80;99.90
46037;DHT22;31769;49.304;8.428;2023-04-03T03:24:24;4.70;99.90
46037;DHT22;31769;49.304;8.428;2023-04-03T03:27:24;6.50;99.90
46037;DHT22;31769;49.304;8.428;2023-04-03T03:30:26;4.80;99.90
46037;DHT22;31769;49.304;8.428;2023-04-03T03:33:26;4.70;99.90
46037;DHT22;31769;49.304;8.428;2023-04-03T03:36:27;4.80;99.90
46037;DHT22;31769;49.304;8.428;2023-04-03T03:39:28;5.20;99.90
46037;DHT22;31769;49.304;8.428;2023-04-03T03:42:29;4.90;99.90
46037;DHT22;31769;49.304;8.428;2023-04-03T03:45:30;4.70;99.90
46037;DHT22;31769;49.304;8.428;2023-04-03T03:48:31;4.70;99.90
46037;DHT22;31769;49.304;8.428;2023-04-03T03:51:32;4.80;99.90
46037;DHT22;31769;49.304;8.428;2023-04-03T03:54:32;4.70;99.90
46037;DHT22;31769;49.304;8.428;2023-04-03T03:57:33;4.60;99.90
46037;DHT22;31769;49.304;8.428;2023-04-03T04:00:35;4.50;99.90
46037;DHT22;31769;49.304;8.428;2023-04-03T04:03:36;4.70;99.90
46037;DHT22;31769;49.304;8.428;2023-04-03T04:06:38;4.50;99.90
46037;DHT22;31769;49.304;8.428;2023-04-03T04:09:42;4.30;99.90
46037;DHT22;31769;49.304;8.428;2023-04-03T04:12:43;4.30;99.90
46037;DHT22;31769;49.304;8.428;2023-04-03T04:15:44;4.20;99.90
46037;DHT22;31769;49.304;8.428;2023-04-03T04:18:45;4.10;99.90
46037;DHT22;31769;49.304;8.428;2023-04-03T04:21:46;4.10;99.90
46037;DHT22;31769;49.304;8.428;2023-04-03T04:24:47;4.20;99.90
46037;DHT22;31769;49.304;8.428;2023-04-03T04:27:48;3.90;99.90
46037;DHT22;31769;49.304;8.428;2023-04-03T04:30:49;4.00;99.90
46037;DHT22;31769;49.304;8.428;2023-04-03T04:33:52;4.80;99.90
46037;DHT22;31769;49.304;8.428;2023-04-03T04:36:53;3.90;99.90
46037;DHT22;31769;49.304;8.428;2023-04-03T04:39:54;3.80;99.90
46037;DHT22;31769;49.304;8.428;2023-04-03T04:42:55;4.70;99.90
46037;DHT22;31769;49.304;8.428;2023-04-03T04:46:04;3.80;99.90
46037;DHT22;31769;49.304;8.428;2023-04-03T04:49:08;3.80;99.90
46037;DHT22;31769;49.304;8.428;2023-04-03T04:52:09;3.80;99.90
46037;DHT22;31769;49.304;8.428;2023-04-03T04:55:10;3.80;99.90
46037;DHT22;31769;49.304;8.428;2023-04-03T04:58:11;3.80;99.90
46037;DHT22;31769;49.304;8.428;2023-04-03T05:01:12;3.70;99.90
46037;DHT22;31769;49.304;8.428;2023-04-03T05:04:24;3.80;99.90
46037;DHT22;31769;49.304;8.428;2023-04-03T05:07:30;3.80;99.90
46037;DHT22;31769;49.304;8.428;2023-04-03T05:10:32;3.80;99.90
46037;DHT22;31769;49.304;8.428;2023-04-03T05:13:33;3.80;99.90
46037;DHT22;31769;49.304;8.428;2023-04-03T05:16:34;3.90;99.90
46037;DHT22;31769;49.304;8.428;2023-04-03T05:19:35;3.90;99.90
46037;DHT22;31769;49.304;8.428;2023-04-03T05:22:38;3.90;99.90
46037;DHT22;31769;49.304;8.428;2023-04-03T05:25:41;4.00;99.90
46037;DHT22;31769;49.304;8.428;2023-04-03T05:28:44;4.20;99.90
46037;DHT22;31769;49.304;8.428;2023-04-03T05:31:46;4.30;99.90
46037;DHT22;31769;49.304;8.428;2023-04-03T05:34:47;4.40;99.90
46037;DHT22;31769;49.304;8.428;2023-04-03T05:37:48;4.40;99.90
46037;DHT22;31769;49.304;8.428;2023-04-03T05:40:50;4.50;99.90
46037;DHT22;31769;49.304;8.428;2023-04-03T05:43:51;4.60;99.90
46037;DHT22;31769;49.304;8.428;2023-04-03T05:46:54;4.60;99.90
46037;DHT22;31769;49.304;8.428;2023-04-03T05:49:55;4.60;99.90
46037;DHT22;31769;49.304;8.428;2023-04-03T05:52:57;4.70;99.90
46037;DHT22;31769;49.304;8.428;2023-04-03T05:56:01;4.80;99.90
46037;DHT22;31769;49.304;8.428;2023-04-03T05:59:05;4.90;99.90
46037;DHT22;31769;49.304;8.428;2023-04-03T06:02:06;4.90;99.90
46037;DHT22;31769;49.304;8.428;2023-04-03T06:05:08;5.00;99.90
46037;DHT22;31769;49.304;8.428;2023-04-03T06:08:09;5.00;99.90
46037;DHT22;31769;49.304;8.428;2023-04-03T06:11:10;5.10;99.90
46037;DHT22;31769;49.304;8.428;2023-04-03T06:14:11;5.10;99.90
46037;DHT22;31769;49.304;8.428;2023-04-03T06:17:12;5.20;99.90
46037;DHT22;31769;49.304;8.428;2023-04-03T06:20:13;5.40;99.90
46037;DHT22;31769;49.304;8.428;2023-04-03T06:23:14;5.50;99.90
46037;DHT22;31769;49.304;8.428;2023-04-03T06:26:15;5.60;99.90
46037;DHT22;31769;49.304;8.428;2023-04-03T06:29:16;5.80;99.90
46037;DHT22;31769;49.304;8.428;2023-04-03T06:32:16;5.90;99.90
46037;DHT22;31769;49.304;8.428;2023-04-03T06:35:17;5.90;99.90
46037;DHT22;31769;49.304;8.428;2023-04-03T06:38:18;6.00;99.90
46037;DHT22;31769;49.304;8.428;2023-04-03T06:41:19;5.90;99.90
46037;DHT22;31769;49.304;8.428;2023-04-03T06:44:19;5.90;99.90
46037;DHT22;31769;49.304;8.428;2023-04-03T06:47:20;5.90;99.90
46037;DHT22;31769;49.304;8.428;2023-04-03T06:50:21;6.00;99.90
46037;DHT22;31769;49.304;8.428;2023-04-03T06:53:21;6.10;99.90
46037;DHT22;31769;49.304;8.428;2023-04-03T06:56:22;6.10;99.90
46037;DHT22;31769;49.304;8.428;2023-04-03T06:59:24;6.10;99.90
46037;DHT22;31769;49.304;8.428;2023-04-03T07:02:24;6.20;99.90
46037;DHT22;31769;49.304;8.428;2023-04-03T07:05:25;6.40;99.90
46037;DHT22;31769;49.304;8.428;2023-04-03T07:08:26;6.40;99.90
46037;DHT22;31769;49.304;8.428;2023-04-03T07:11:27;6.60;99.90
46037;DHT22;31769;49.304;8.428;2023-04-03T07:14:28;6.60;99.90
46037;DHT22;31769;49.304;8.428;2023-04-03T07:17:29;6.60;99.90
46037;DHT22;31769;49.304;8.428;2023-04-03T07:20:29;6.70;99.90
46037;DHT22;31769;49.304;8.428;2023-04-03T07:23:30;6.70;99.90
46037;DHT22;31769;49.304;8.428;2023-04-03T07:26:31;6.80;99.90
46037;DHT22;31769;49.304;8.428;2023-04-03T07:29:32;7.00;99.90
46037;DHT22;31769;49.304;8.428;2023-04-03T07:32:32;7.00;99.90
46037;DHT22;31769;49.304;8.428;2023-04-03T07:35:33;7.00;99.90
46037;DHT22;31769;49.304;8.428;2023-04-03T07:38:35;7.00;99.90
46037;DHT22;31769;49.304;8.428;2023-04-03T07:41:36;7.00;99.90
46037;DHT22;31769;49.304;8.428;2023-04-03T07:44:37;7.00;99.90
46037;DHT22;31769;49.304;8.428;2023-04-03T07:47:38;7.10;99.90
46037;DHT22;31769;49.304;8.428;2023-04-03T07:50:42;7.20;99.90
46037;DHT22;31769;49.304;8.428;2023-04-03T07:53:43;7.20;99.90
46037;DHT22;31769;49.304;8.428;2023-04-03T07:56:43;7.20;99.90
46037;DHT22;31769;49.304;8.428;2023-04-03T07:59:44;7.20;99.90
46037;DHT22;31769;49.304;8.428;2023-04-03T08:02:45;7.20;99.90
46037;DHT22;31769;49.304;8.428;2023-04-03T08:05:50;7.30;99.90
46037;DHT22;31769;49.304;8.428;2023-04-03T08:08:51;7.30;99.90
46037;DHT22;31769;49.304;8.428;2023-04-03T08:11:52;7.40;99.90
46037;DHT22;31769;49.304;8.428;2023-04-03T08:14:53;7.60;99.90
46037;DHT22;31769;49.304;8.428;2023-04-03T08:17:54;7.70;99.90
46037;DHT22;31769;49.304;8.428;2023-04-03T08:20:55;7.80;99.90
46037;DHT22;31769;49.304;8.428;2023-04-03T08:23:56;8.00;99.90
46037;DHT22;31769;49.304;8.428;2023-04-03T08:26:57;8.10;99.90
46037;DHT22;31769;49.304;8.428;2023-04-03T08:29:57;8.30;99.90
46037;DHT22;31769;49.304;8.428;2023-04-03T08:33:00;8.40;99.90
46037;DHT22;31769;49.304;8.428;2023-04-03T08:36:16;8.40;99.90
46037;DHT22;31769;49.304;8.428;2023-04-03T08:39:17;8.70;99.90
46037;DHT22;31769;49.304;8.428;2023-04-03T08:45:53;9.10;99.90
46037;DHT22;31769;49.304;8.428;2023-04-03T08:48:57;9.30;99.90
46037;DHT22;31769;49.304;8.428;2023-04-03T08:52:02;9.50;99.90
46037;DHT22;31769;49.304;8.428;2023-04-03T08:55:26;9.60;99.50
46037;DHT22;31769;49.304;8.428;2023-04-03T08:58:39;9.70;99.00
46037;DHT22;31769;49.304;8.428;2023-04-03T09:01:42;9.80;98.00
46037;DHT22;31769;49.304;8.428;2023-04-03T09:04:43;10.00;97.70
46037;DHT22;31769;49.304;8.428;2023-04-03T09:07:53;10.10;96.50
46037;DHT22;31769;49.304;8.428;2023-04-03T09:14:39;10.60;93.30
46037;DHT22;31769;49.304;8.428;2023-04-03T09:24:14;10.60;93.30
46037;DHT22;31769;49.304;8.428;2023-04-03T09:27:15;10.40;93.50
46037;DHT22;31769;49.304;8.428;2023-04-03T09:30:18;10.30;94.10
46037;DHT22;31769;49.304;8.428;2023-04-03T09:33:20;10.30;93.60
46037;DHT22;31769;49.304;8.428;2023-04-03T09:39:49;10.30;94.30
46037;DHT22;31769;49.304;8.428;2023-04-03T09:42:50;10.40;93.10
46037;DHT22;31769;49.304;8.428;2023-04-03T09:45:52;10.90;93.40
46037;DHT22;31769;49.304;8.428;2023-04-03T09:48:57;11.20;93.00
46037;DHT22;31769;49.304;8.428;2023-04-03T09:52:16;11.30;91.80
46037;DHT22;31769;49.304;8.428;2023-04-03T09:55:27;11.30;92.10
46037;DHT22;31769;49.304;8.428;2023-04-03T09:58:40;11.50;91.70
46037;DHT22;31769;49.304;8.428;2023-04-03T10:01:58;11.40;91.70
46037;DHT22;31769;49.304;8.428;2023-04-03T10:05:00;11.40;91.80
46037;DHT22;31769;49.304;8.428;2023-04-03T10:11:09;11.50;91.20
46037;DHT22;31769;49.304;8.428;2023-04-03T10:14:16;11.70;90.80
46037;DHT22;31769;49.304;8.428;2023-04-03T10:27:01;11.20;87.20
46037;DHT22;31769;49.304;8.428;2023-04-03T10:37:27;11.70;87.20
46037;DHT22;31769;49.304;8.428;2023-04-03T10:40:33;12.10;86.80
46037;DHT22;31769;49.304;8.428;2023-04-03T10:43:49;12.20;85.70
46037;DHT22;31769;49.304;8.428;2023-04-03T10:50:39;12.50;84.20
46037;DHT22;31769;49.304;8.428;2023-04-03T10:53:48;12.60;80.90
46037;DHT22;31769;49.304;8.428;2023-04-03T10:56:54;12.70;80.90
46037;DHT22;31769;49.304;8.428;2023-04-03T10:59:57;13.00;79.90
46037;DHT22;31769;49.304;8.428;2023-04-03T11:03:00;12.80;77.80
46037;DHT22;31769;49.304;8.428;2023-04-03T11:06:14;12.70;77.90
46037;DHT22;31769;49.304;8.428;2023-04-03T11:09:28;12.80;78.30
46037;DHT22;31769;49.304;8.428;2023-04-03T11:12:39;12.80;77.30
46037;DHT22;31769;49.304;8.428;2023-04-03T11:15:42;12.70;77.20
46037;DHT22;31769;49.304;8.428;2023-04-03T11:18:59;12.60;77.80
46037;DHT22;31769;49.304;8.428;2023-04-03T11:25:25;12.70;77.20
46037;DHT22;31769;49.304;8.428;2023-04-03T11:28:26;12.80;77.90
46037;DHT22;31769;49.304;8.428;2023-04-03T11:31:48;13.10;77.20
46037;DHT22;31769;49.304;8.428;2023-04-03T11:34:57;13.20;76.30
46037;DHT22;31769;49.304;8.428;2023-04-03T11:38:00;13.20;75.70
46037;DHT22;31769;49.304;8.428;2023-04-03T11:41:06;13.10;75.80
46037;DHT22;31769;49.304;8.428;2023-04-03T11:47:50;12.80;76.30
46037;DHT22;31769;49.304;8.428;2023-04-03T11:50:51;13.00;74.50
46037;DHT22;31769;49.304;8.428;2023-04-03T11:53:52;13.60;74.50
46037;DHT22;31769;49.304;8.428;2023-04-03T11:56:52;13.90;73.20
46037;DHT22;31769;49.304;8.428;2023-04-03T11:59:53;14.10;72.10
46037;DHT22;31769;49.304;8.428;2023-04-03T12:02:54;14.40;71.50
46037;DHT22;31769;49.304;8.428;2023-04-03T12:24:57;14.20;67.40
46037;DHT22;31769;49.304;8.428;2023-04-03T12:27:58;13.90;68.00
46037;DHT22;31769;49.304;8.428;2023-04-03T12:31:01;13.70;69.00
46037;DHT22;31769;49.304;8.428;2023-04-03T12:34:45;13.60;69.90
46037;DHT22;31769;49.304;8.428;2023-04-03T12:38:26;13.20;69.20
46037;DHT22;31769;49.304;8.428;2023-04-03T12:41:38;13.40;69.00
46037;DHT22;31769;49.304;8.428;2023-04-03T12:47:49;15.80;64.80
46037;DHT22;31769;49.304;8.428;2023-04-03T12:50:51;16.70;62.80
46037;DHT22;31769;49.304;8.428;2023-04-03T12:54:12;17.00;62.10
46037;DHT22;31769;49.304;8.428;2023-04-03T12:57:18;16.70;60.30
46037;DHT22;31769;49.304;8.428;2023-04-03T13:00:32;16.20;61.90
46037;DHT22;31769;49.304;8.428;2023-04-03T13:03:33;16.40;62.60
46037;DHT22;31769;49.304;8.428;2023-04-03T13:06:41;16.20;62.30
46037;DHT22;31769;49.304;8.428;2023-04-03T13:09:42;15.30;63.30
46037;DHT22;31769;49.304;8.428;2023-04-03T13:12:55;15.10;64.60
46037;DHT22;31769;49.304;8.428;2023-04-03T13:15:56;14.70;63.20
46037;DHT22;31769;49.304;8.428;2023-04-03T13:18:57;14.10;64.50
46037;DHT22;31769;49.304;8.428;2023-04-03T13:22:02;13.80;65.40
46037;DHT22;31769;49.304;8.428;2023-04-03T13:25:06;13.90;65.50
46037;DHT22;31769;49.304;8.428;2023-04-03T13:28:11;14.30;65.10
46037;DHT22;31769;49.304;8.428;2023-04-03T13:34:19;14.90;62.20
46037;DHT22;31769;49.304;8.428;2023-04-03T13:37:21;16.40;61.00
46037;DHT22;31769;49.304;8.428;2023-04-03T13:40:23;17.60;57.90
46037;DHT22;31769;49.304;8.428;2023-04-03T13:43:27;18.20;57.10
46037;DHT22;31769;49.304;8.428;2023-04-03T13:46:28;20.00;54.70
46037;DHT22;31769;49.304;8.428;2023-04-03T13:52:39;20.80;52.00
46037;DHT22;31769;49.304;8.428;2023-04-03T14:02:17;25.70;45.80
46037;DHT22;31769;49.304;8.428;2023-04-03T14:05:18;24.90;45.10
46037;DHT22;31769;49.304;8.428;2023-04-03T14:08:21;23.60;44.90
46037;DHT22;31769;49.304;8.428;2023-04-03T14:11:29;25.00;44.00
46037;DHT22;31769;49.304;8.428;2023-04-03T14:14:32;29.80;40.90
46037;DHT22;31769;49.304;8.428;2023-04-03T14:17:34;33.90;34.90
46037;DHT22;31769;49.304;8.428;2023-04-03T14:20:35;36.90;31.70
46037;DHT22;31769;49.304;8.428;2023-04-03T14:23:35;37.70;30.00
46037;DHT22;31769;49.304;8.428;2023-04-03T14:26:37;38.40;30.30
46037;DHT22;31769;49.304;8.428;2023-04-03T14:29:37;37.70;30.30
46037;DHT22;31769;49.304;8.428;2023-04-03T14:32:38;38.90;30.00
46037;DHT22;31769;49.304;8.428;2023-04-03T14:35:39;37.70;29.60
46037;DHT22;31769;49.304;8.428;2023-04-03T14:38:40;35.00;30.20
46037;DHT22;31769;49.304;8.428;2023-04-03T14:41:42;30.70;31.60
46037;DHT22;31769;49.304;8.428;2023-04-03T14:44:43;25.60;34.10
46037;DHT22;31769;49.304;8.428;2023-04-03T14:47:47;21.50;38.10
46037;DHT22;31769;49.304;8.428;2023-04-03T14:50:48;19.00;41.20
46037;DHT22;31769;49.304;8.428;2023-04-03T14:53:50;18.20;42.20
46037;DHT22;31769;49.304;8.428;2023-04-03T14:56:52;18.40;42.30
46037;DHT22;31769;49.304;8.428;2023-04-03T14:59:53;22.20;39.10
46037;DHT22;31769;49.304;8.428;2023-04-03T15:02:54;23.90;36.50
46037;DHT22;31769;49.304;8.428;2023-04-03T15:05:55;25.60;35.00
46037;DHT22;31769;49.304;8.428;2023-04-03T15:08:55;28.70;33.50
46037;DHT22;31769;49.304;8.428;2023-04-03T15:11:56;33.20;32.00
46037;DHT22;31769;49.304;8.428;2023-04-03T15:14:57;34.30;30.70
46037;DHT22;31769;49.304;8.428;2023-04-03T15:17:57;31.50;31.20
46037;DHT22;31769;49.304;8.428;2023-04-03T15:20:58;28.30;32.40
46037;DHT22;31769;49.304;8.428;2023-04-03T15:23:59;29.10;32.70
46037;DHT22;31769;49.304;8.428;2023-04-03T15:27:00;30.10;32.00
46037;DHT22;31769;49.304;8.428;2023-04-03T15:30:03;29.00;32.30
46037;DHT22;31769;49.304;8.428;2023-04-03T15:33:04;27.90;32.60
46037;DHT22;31769;49.304;8.428;2023-04-03T15:36:05;30.90;31.40
46037;DHT22;31769;49.304;8.428;2023-04-03T15:39:06;33.50;30.00
46037;DHT22;31769;49.304;8.428;2023-04-03T15:42:06;35.80;29.90
46037;DHT22;31769;49.304;8.428;2023-04-03T15:45:08;36.80;29.30
46037;DHT22;31769;49.304;8.428;2023-04-03T15:48:09;33.60;29.90
46037;DHT22;31769;49.304;8.428;2023-04-03T15:51:10;31.90;30.60
46037;DHT22;31769;49.304;8.428;2023-04-03T15:54:11;34.40;30.00
46037;DHT22;31769;49.304;8.428;2023-04-03T15:57:12;37.60;28.90
46037;DHT22;31769;49.304;8.428;2023-04-03T16:00:13;36.90;28.60
46037;DHT22;31769;49.304;8.428;2023-04-03T16:03:19;34.70;29.10
46037;DHT22;31769;49.304;8.428;2023-04-03T16:06:20;30.70;30.50
46037;DHT22;31769;49.304;8.428;2023-04-03T16:09:21;27.50;32.10
46037;DHT22;31769;49.304;8.428;2023-04-03T16:12:21;26.60;32.40
46037;DHT22;31769;49.304;8.428;2023-04-03T16:15:23;27.10;32.00
46037;DHT22;31769;49.304;8.428;2023-04-03T16:18:24;27.60;31.90
46037;DHT22;31769;49.304;8.428;2023-04-03T16:21:26;29.50;31.10
46037;DHT22;31769;49.304;8.428;2023-04-03T16:24:27;29.60;30.90
46037;DHT22;31769;49.304;8.428;2023-04-03T16:27:27;28.00;31.90
46037;DHT22;31769;49.304;8.428;2023-04-03T16:30:30;28.20;31.90
46037;DHT22;31769;49.304;8.428;2023-04-03T16:33:31;26.40;32.80
46037;DHT22;31769;49.304;8.428;2023-04-03T16:36:31;24.60;34.10
46037;DHT22;31769;49.304;8.428;2023-04-03T16:39:32;23.70;35.00
46037;DHT22;31769;49.304;8.428;2023-04-03T16:42:33;22.10;36.50
46037;DHT22;31769;49.304;8.428;2023-04-03T16:45:33;21.70;36.80
46037;DHT22;31769;49.304;8.428;2023-04-03T16:48:34;23.80;35.00
46037;DHT22;31769;49.304;8.428;2023-04-03T16:51:35;26.10;33.30
46037;DHT22;31769;49.304;8.428;2023-04-03T16:54:36;28.30;32.50
46037;DHT22;31769;49.304;8.428;2023-04-03T16:57:37;30.00;31.20
46037;DHT22;31769;49.304;8.428;2023-04-03T17:00:37;31.20;30.20
46037;DHT22;31769;49.304;8.428;2023-04-03T17:03:38;32.00;29.80
46037;DHT22;31769;49.304;8.428;2023-04-03T17:06:39;32.40;29.90
46037;DHT22;31769;49.304;8.428;2023-04-03T17:09:40;32.20;30.00
46037;DHT22;31769;49.304;8.428;2023-04-03T17:12:41;32.00;29.90
46037;DHT22;31769;49.304;8.428;2023-04-03T17:15:41;31.40;30.00
46037;DHT22;31769;49.304;8.428;2023-04-03T17:18:42;30.60;30.10
46037;DHT22;31769;49.304;8.428;2023-04-03T17:21:44;30.00;30.60
46037;DHT22;31769;49.304;8.428;2023-04-03T17:24:46;28.60;30.40
46037;DHT22;31769;49.304;8.428;2023-04-03T17:27:46;27.60;31.40
46037;DHT22;31769;49.304;8.428;2023-04-03T17:30:47;26.50;32.00
46037;DHT22;31769;49.304;8.428;2023-04-03T17:33:48;25.00;33.50
46037;DHT22;31769;49.304;8.428;2023-04-03T17:36:48;22.70;35.20
46037;DHT22;31769;49.304;8.428;2023-04-03T17:39:49;21.30;36.40
46037;DHT22;31769;49.304;8.428;2023-04-03T17:42:50;19.90;37.80
46037;DHT22;31769;49.304;8.428;2023-04-03T17:45:52;18.20;39.70
46037;DHT22;31769;49.304;8.428;2023-04-03T17:48:52;17.20;41.20
46037;DHT22;31769;49.304;8.428;2023-04-03T17:51:53;16.30;42.70
46037;DHT22;31769;49.304;8.428;2023-04-03T17:54:54;16.10;44.40
46037;DHT22;31769;49.304;8.428;2023-04-03T17:57:54;13.90;46.20
46037;DHT22;31769;49.304;8.428;2023-04-03T18:00:55;12.40;47.90
46037;DHT22;31769;49.304;8.428;2023-04-03T18:03:58;12.40;50.90
46037;DHT22;31769;49.304;8.428;2023-04-03T18:07:01;10.90;51.60
46037;DHT22;31769;49.304;8.428;2023-04-03T18:10:03;10.30;52.90
46037;DHT22;31769;49.304;8.428;2023-04-03T18:13:06;9.70;54.20
46037;DHT22;31769;49.304;8.428;2023-04-03T18:16:09;9.40;55.30
46037;DHT22;31769;49.304;8.428;2023-04-03T18:19:10;9.10;56.60
46037;DHT22;31769;49.304;8.428;2023-04-03T18:22:14;8.90;57.20
46037;DHT22;31769;49.304;8.428;2023-04-03T18:25:16;8.30;57.40
46037;DHT22;31769;49.304;8.428;2023-04-03T18:28:17;8.30;57.90
46037;DHT22;31769;49.304;8.428;2023-04-03T18:31:18;9.00;59.50
46037;DHT22;31769;49.304;8.428;2023-04-03T18:34:20;7.90;59.00
46037;DHT22;31769;49.304;8.428;2023-04-03T18:37:20;7.80;59.60
46037;DHT22;31769;49.304;8.428;2023-04-03T18:40:23;7.70;60.70
46037;DHT22;31769;49.304;8.428;2023-04-03T18:43:24;8.30;62.00
46037;DHT22;31769;49.304;8.428;2023-04-03T18:46:26;7.60;62.00
46037;DHT22;31769;49.304;8.428;2023-04-03T18:49:29;7.50;62.90
46037;DHT22;31769;49.304;8.428;2023-04-03T18:52:30;7.50;62.50
46037;DHT22;31769;49.304;8.428;2023-04-03T18:55:31;7.30;62.10
46037;DHT22;31769;49.304;8.428;2023-04-03T18:58:31;7.20;62.80
46037;DHT22;31769;49.304;8.428;2023-04-03T19:01:33;7.20;63.30
46037;DHT22;31769;49.304;8.428;2023-04-03T19:04:34;7.10;63.80
46037;DHT22;31769;49.304;8.428;2023-04-03T19:07:35;7.00;64.30
46037;DHT22;31769;49.304;8.428;2023-04-03T19:10:36;7.00;65.10
46037;DHT22;31769;49.304;8.428;2023-04-03T19:13:36;6.90;65.50
46037;DHT22;31769;49.304;8.428;2023-04-03T19:16:37;6.80;66.20
46037;DHT22;31769;49.304;8.428;2023-04-03T19:19:38;6.80;66.90
46037;DHT22;31769;49.304;8.428;2023-04-03T19:22:40;6.70;67.60
46037;DHT22;31769;49.304;8.428;2023-04-03T19:25:40;6.70;68.20
46037;DHT22;31769;49.304;8.428;2023-04-03T19:28:41;6.60;68.70
46037;DHT22;31769;49.304;8.428;2023-04-03T19:31:42;6.60;69.70
46037;DHT22;31769;49.304;8.428;2023-04-03T19:34:42;6.50;70.00
46037;DHT22;31769;49.304;8.428;2023-04-03T19:37:43;6.50;70.70
46037;DHT22;31769;49.304;8.428;2023-04-03T19:40:46;6.40;71.80
46037;DHT22;31769;49.304;8.428;2023-04-03T19:43:47;6.30;73.00
46037;DHT22;31769;49.304;8.428;2023-04-03T19:46:49;6.20;73.90
46037;DHT22;31769;49.304;8.428;2023-04-03T19:49:50;6.20;74.10
46037;DHT22;31769;49.304;8.428;2023-04-03T19:52:51;6.20;75.10
46037;DHT22;31769;49.304;8.428;2023-04-03T19:55:51;6.10;76.20
46037;DHT22;31769;49.304;8.428;2023-04-03T19:58:52;6.10;77.00
46037;DHT22;31769;49.304;8.428;2023-04-03T20:01:53;6.00;77.30
46037;DHT22;31769;49.304;8.428;2023-04-03T20:04:53;5.90;77.90
46037;DHT22;31769;49.304;8.428;2023-04-03T20:07:54;5.90;78.70
46037;DHT22;31769;49.304;8.428;2023-04-03T20:10:55;5.90;79.90
46037;DHT22;31769;49.304;8.428;2023-04-03T20:13:56;5.80;80.30
46037;DHT22;31769;49.304;8.428;2023-04-03T20:16:57;5.80;81.50
46037;DHT22;31769;49.304;8.428;2023-04-03T20:19:58;5.80;82.20
46037;DHT22;31769;49.304;8.428;2023-04-03T20:23:00;6.70;85.20
46037;DHT22;31769;49.304;8.428;2023-04-03T20:26:03;5.70;85.80
46037;DHT22;31769;49.304;8.428;2023-04-03T20:29:04;5.70;85.10
46037;DHT22;31769;49.304;8.428;2023-04-03T20:32:05;5.60;85.70
46037;DHT22;31769;49.304;8.428;2023-04-03T20:35:07;5.60;86.70
46037;DHT22;31769;49.304;8.428;2023-04-03T20:38:07;5.50;87.90
46037;DHT22;31769;49.304;8.428;2023-04-03T20:41:08;5.90;89.90
46037;DHT22;31769;49.304;8.428;2023-04-03T20:44:09;5.40;89.70
46037;DHT22;31769;49.304;8.428;2023-04-03T20:47:13;5.30;90.20
46037;DHT22;31769;49.304;8.428;2023-04-03T20:50:13;5.30;90.60